createdAt,value
2019-06-10T00:00:26.010Z,63.28
2019-06-10T00:01:25.927Z,63.98
2019-06-10T00:02:25.921Z,63.98
2019-06-10T00:03:25.850Z,63.98
2019-06-10T00:04:25.885Z,63.58
2019-06-10T00:05:25.873Z,63.61
2019-06-10T00:06:25.921Z,62.71
2019-06-10T00:07:25.807Z,62.21
2019-06-10T00:08:25.805Z,61.91
2019-06-10T00:09:25.820Z,61.91
2019-06-10T00:10:25.799Z,62.01
2019-06-10T00:11:25.811Z,62.01
2019-06-10T00:12:25.894Z,60.92
2019-06-10T00:13:25.781Z,60.62
2019-06-10T00:14:25.735Z,60.12
2019-06-10T00:15:25.774Z,60.09
2019-06-10T00:16:25.731Z,59.99
2019-06-10T00:17:25.744Z,59.99
2019-06-10T00:18:38.374Z,60.39
2019-06-10T00:19:26.713Z,60.09
2019-06-10T00:20:25.672Z,60.79
2019-06-10T00:21:25.683Z,61.69
2019-06-10T00:22:25.699Z,62.78
2019-06-10T00:23:25.661Z,62.85
2019-06-10T00:24:25.770Z,63.15
2019-06-10T00:25:25.616Z,62.95
2019-06-10T00:26:25.631Z,63.75
2019-06-10T00:27:25.648Z,64.25
2019-06-10T00:28:25.619Z,64.64
2019-06-10T00:29:25.624Z,64.84
2019-06-10T00:30:25.649Z,65.14
2019-06-10T00:31:25.577Z,64.84
2019-06-10T00:32:25.541Z,60.89
2019-06-10T00:33:25.532Z,61.58
2019-06-10T00:34:25.554Z,63.48
2019-06-10T00:35:25.506Z,63.28
2019-06-10T00:36:25.611Z,61.99
2019-06-10T00:37:25.536Z,62.08
2019-06-10T00:38:25.514Z,63.31
2019-06-10T00:39:25.515Z,63.31
2019-06-10T00:40:25.455Z,63.41
2019-06-10T00:41:25.490Z,62.41
2019-06-10T00:42:25.536Z,62.45
2019-06-10T00:43:25.457Z,62.15
2019-06-10T00:44:25.426Z,61.55
2019-06-10T00:45:25.397Z,62.34
2019-06-10T00:46:25.437Z,63.84
2019-06-10T00:47:25.417Z,64.01
2019-06-10T00:48:29.161Z,65.01
2019-06-10T00:49:26.408Z,64.31
2019-06-10T00:50:25.392Z,64.01
2019-06-10T00:51:25.368Z,63.91
2019-06-10T00:52:25.365Z,64.31
2019-06-10T00:53:25.340Z,64.21
2019-06-10T00:54:25.427Z,65.01
2019-06-10T00:55:25.298Z,62.51
2019-06-10T00:56:25.323Z,61.11
2019-06-10T00:57:25.297Z,61.71
2019-06-10T00:58:25.298Z,61.91
2019-06-10T00:59:25.287Z,59.52
2019-06-10T01:00:26.001Z,58.72
2019-06-10T01:01:25.265Z,59.22
2019-06-10T01:02:25.248Z,58.62
2019-06-10T01:03:25.256Z,58.03
2019-06-10T01:04:25.200Z,56.73
2019-06-10T01:05:25.212Z,55.21
2019-06-10T01:06:25.289Z,55.11
2019-06-10T01:07:25.187Z,54.11
2019-06-10T01:08:25.201Z,54.41
2019-06-10T01:09:25.212Z,53.22
2019-06-10T01:10:25.158Z,52.62
2019-06-10T01:11:27.139Z,52.39
2019-06-10T01:12:25.258Z,52.19
2019-06-10T01:13:25.149Z,52.19
2019-06-10T01:14:25.127Z,52.39
2019-06-10T01:15:25.121Z,52.59
2019-06-10T01:16:25.102Z,59.06
2019-06-10T01:17:25.061Z,59.96
2019-06-10T01:18:34.888Z,60.56
2019-06-10T01:19:26.095Z,60.26
2019-06-10T01:20:25.021Z,59.89
2019-06-10T01:21:25.050Z,60.39
2019-06-10T01:22:25.038Z,59.62
2019-06-10T01:23:25.048Z,60.22
2019-06-10T01:24:25.102Z,60.82
2019-06-10T01:25:24.969Z,61.22
2019-06-10T01:26:25.012Z,61.22
2019-06-10T01:27:24.973Z,61.94
2019-06-10T01:28:24.959Z,62.64
2019-06-10T01:29:24.951Z,64.04
2019-06-10T01:30:27.323Z,64.24
2019-06-10T01:31:24.952Z,66.03
2019-06-10T01:32:24.941Z,66.03
2019-06-10T01:33:24.911Z,65.80
2019-06-10T01:34:24.923Z,65.94
2019-06-10T01:35:24.910Z,66.24
2019-06-10T01:36:24.992Z,66.53
2019-06-10T01:37:24.882Z,66.24
2019-06-10T01:38:24.894Z,63.84
2019-06-10T01:39:24.853Z,62.94
2019-06-10T01:40:24.853Z,61.74
2019-06-10T01:41:24.800Z,62.45
2019-06-10T01:42:24.926Z,61.44
2019-06-10T01:43:24.827Z,60.45
2019-06-10T01:44:24.824Z,60.65
2019-06-10T01:45:24.805Z,61.05
2019-06-10T01:46:24.744Z,60.55
2019-06-10T01:47:24.782Z,59.65
2019-06-10T01:48:24.902Z,58.75
2019-06-10T01:49:24.737Z,56.76
2019-06-10T01:50:24.722Z,56.26
2019-06-10T01:51:24.705Z,55.96
2019-06-10T01:52:24.734Z,55.86
2019-06-10T01:53:24.713Z,55.66
2019-06-10T01:54:24.843Z,55.76
2019-06-10T01:55:24.683Z,56.06
2019-06-10T01:56:24.649Z,56.13
2019-06-10T01:57:24.631Z,55.73
2019-06-10T01:58:24.654Z,55.54
2019-06-10T01:59:24.651Z,55.63
2019-06-10T02:00:27.923Z,55.93
2019-06-10T02:01:25.941Z,56.03
2019-06-10T02:02:24.618Z,56.23
2019-06-10T02:03:24.600Z,56.01
2019-06-10T02:04:24.555Z,56.01
2019-06-10T02:05:24.588Z,55.41
2019-06-10T02:06:25.944Z,55.21
2019-06-10T02:07:24.574Z,55.21
2019-06-10T02:08:24.512Z,55.18
2019-06-10T02:09:24.539Z,54.98
2019-06-10T02:10:24.488Z,55.08
2019-06-10T02:11:24.505Z,55.08
2019-06-10T02:12:24.590Z,55.28
2019-06-10T02:13:24.506Z,55.28
2019-06-10T02:14:24.496Z,55.48
2019-06-10T02:15:24.481Z,55.78
2019-06-10T02:16:24.475Z,55.95
2019-06-10T02:17:24.451Z,56.25
2019-06-10T02:18:24.507Z,56.15
2019-06-10T02:19:24.394Z,55.85
2019-06-10T02:20:24.386Z,56.05
2019-06-10T02:21:24.597Z,56.25
2019-06-10T02:22:24.663Z,56.35
2019-06-10T02:23:24.399Z,56.85
2019-06-10T02:24:24.479Z,56.55
2019-06-10T02:25:24.333Z,56.55
2019-06-10T02:26:24.345Z,56.38
2019-06-10T02:27:24.358Z,56.27
2019-06-10T02:28:24.347Z,56.27
2019-06-10T02:29:24.334Z,55.98
2019-06-10T02:30:40.267Z,55.98
2019-06-10T02:31:30.469Z,55.88
2019-06-10T02:32:32.921Z,56.27
2019-06-10T02:33:30.332Z,56.38
2019-06-10T02:34:27.620Z,56.68
2019-06-10T02:35:37.906Z,56.98
2019-06-10T02:36:31.028Z,60.06
2019-06-10T02:37:31.776Z,61.96
2019-06-10T02:38:33.689Z,62.15
2019-06-10T02:39:33.398Z,61.99
2019-06-10T02:40:31.861Z,61.69
2019-06-10T02:41:32.038Z,60.99
2019-06-10T02:42:30.620Z,58.12
2019-06-10T02:43:31.882Z,58.03
2019-06-10T02:44:32.586Z,58.03
2019-06-10T02:45:32.353Z,58.33
2019-06-10T02:46:31.204Z,58.03
2019-06-10T02:47:32.077Z,58.12
2019-06-10T02:48:30.399Z,58.03
2019-06-10T02:49:46.281Z,58.33
2019-06-10T02:50:32.466Z,58.72
2019-06-10T02:51:30.802Z,59.22
2019-06-10T02:52:32.682Z,60.22
2019-06-10T02:53:30.747Z,61.22
2019-06-10T02:54:31.299Z,61.71
2019-06-10T02:55:30.459Z,62.01
2019-06-10T02:56:30.046Z,62.41
2019-06-10T02:57:34.779Z,62.41
2019-06-10T02:58:31.496Z,62.12
2019-06-10T02:59:27.470Z,62.29
2019-06-10T03:00:38.510Z,62.48
2019-06-10T03:01:30.608Z,62.59
2019-06-10T03:02:30.055Z,62.88
2019-06-10T03:03:35.898Z,62.88
2019-06-10T03:04:29.938Z,63.48
2019-06-10T03:05:29.885Z,63.88
2019-06-10T03:06:32.465Z,64.18
2019-06-10T03:07:28.759Z,64.48
2019-06-10T03:08:27.285Z,65.27
2019-06-10T03:09:29.400Z,65.77
2019-06-10T03:10:29.920Z,66.27
2019-06-10T03:11:29.742Z,66.67
2019-06-10T03:12:25.939Z,66.87
2019-06-10T03:13:25.557Z,66.97
2019-06-10T03:14:25.357Z,67.36
2019-06-10T03:15:25.113Z,67.57
2019-06-10T03:16:25.736Z,67.77
2019-06-10T03:17:25.845Z,67.86
2019-06-10T03:18:24.735Z,68.07
2019-06-10T03:19:38.702Z,68.16
2019-06-10T03:20:25.936Z,68.26
2019-06-10T03:21:25.663Z,68.26
2019-06-10T03:22:25.685Z,68.37
2019-06-10T03:23:26.408Z,68.26
2019-06-10T03:24:25.262Z,68.26
2019-06-10T03:25:26.013Z,68.07
2019-06-10T03:26:25.582Z,67.57
2019-06-10T03:27:26.232Z,67.17
2019-06-10T03:28:25.248Z,66.77
2019-06-10T03:29:26.199Z,66.77
2019-06-10T03:30:37.389Z,67.17
2019-06-10T03:31:33.987Z,66.97
2019-06-10T03:32:32.294Z,66.77
2019-06-10T03:33:31.488Z,66.57
2019-06-10T03:34:33.691Z,65.27
2019-06-10T03:35:26.566Z,65.27
2019-06-10T03:36:25.822Z,65.44
2019-06-10T03:37:26.033Z,65.24
2019-06-10T03:38:26.463Z,64.84
2019-06-10T03:39:25.764Z,62.85
2019-06-10T03:40:25.020Z,62.85
2019-06-10T03:41:25.322Z,61.76
2019-06-10T03:42:25.249Z,61.25
2019-06-10T03:43:24.790Z,60.16
2019-06-10T03:44:25.122Z,59.86
2019-06-10T03:45:25.054Z,59.86
2019-06-10T03:46:25.213Z,58.07
2019-06-10T03:47:24.317Z,57.77
2019-06-10T03:48:25.062Z,58.87
2019-06-10T03:49:24.326Z,59.27
2019-06-10T03:50:25.547Z,59.86
2019-06-10T03:51:24.307Z,60.16
2019-06-10T03:52:25.294Z,60.16
2019-06-10T03:53:25.228Z,60.26
2019-06-10T03:54:26.232Z,60.24
2019-06-10T03:55:26.316Z,60.13
2019-06-10T03:56:25.130Z,59.44
2019-06-10T03:57:24.231Z,58.04
2019-06-10T03:58:25.937Z,59.23
2019-06-10T03:59:24.636Z,59.53
2019-06-10T04:00:24.517Z,59.04
2019-06-10T04:01:26.416Z,58.64
2019-06-10T04:02:24.874Z,58.74
2019-06-10T04:03:24.817Z,58.41
2019-06-10T04:04:24.961Z,59.11
2019-06-10T04:05:25.340Z,60.00
2019-06-10T04:06:25.560Z,60.11
2019-06-10T04:07:26.466Z,60.60
2019-06-10T04:08:25.395Z,61.00
2019-06-10T04:09:25.384Z,61.20
2019-06-10T04:10:24.943Z,61.07
2019-06-10T04:11:25.612Z,61.37
2019-06-10T04:12:24.655Z,61.37
2019-06-10T04:13:25.180Z,61.27
2019-06-10T04:14:25.055Z,61.67
2019-06-10T04:15:25.166Z,62.26
2019-06-10T04:16:25.386Z,62.07
2019-06-10T04:17:25.117Z,62.96
2019-06-10T04:18:25.978Z,62.23
2019-06-10T04:19:25.379Z,62.23
2019-06-10T04:20:25.164Z,63.23
2019-06-10T04:21:25.423Z,63.33
2019-06-10T04:22:24.926Z,63.33
2019-06-10T04:23:25.406Z,62.04
2019-06-10T04:24:25.142Z,60.25
2019-06-10T04:25:25.207Z,60.35
2019-06-10T04:26:25.154Z,60.44
2019-06-10T04:27:25.252Z,60.44
2019-06-10T04:28:24.700Z,60.74
2019-06-10T04:29:25.814Z,60.74
2019-06-10T04:30:24.962Z,61.14
2019-06-10T04:31:23.805Z,61.31
2019-06-10T04:32:25.460Z,61.21
2019-06-10T04:33:24.731Z,59.82
2019-06-10T04:34:25.893Z,60.12
2019-06-10T04:35:26.105Z,61.11
2019-06-10T04:36:24.735Z,61.51
2019-06-10T04:37:23.447Z,61.61
2019-06-10T04:38:24.303Z,60.28
2019-06-10T04:39:25.797Z,60.19
2019-06-10T04:40:24.702Z,59.89
2019-06-10T04:41:24.622Z,59.99
2019-06-10T04:42:24.280Z,59.49
2019-06-10T04:43:23.460Z,59.79
2019-06-10T04:44:23.564Z,59.79
2019-06-10T04:45:23.588Z,59.69
2019-06-10T04:46:24.723Z,58.60
2019-06-10T04:47:23.762Z,58.70
2019-06-10T04:48:23.560Z,58.60
2019-06-10T04:49:24.872Z,58.47
2019-06-10T04:50:33.080Z,58.67
2019-06-10T04:51:26.460Z,58.77
2019-06-10T04:52:24.614Z,59.36
2019-06-10T04:53:23.717Z,58.97
2019-06-10T04:54:23.773Z,59.07
2019-06-10T04:55:23.589Z,59.17
2019-06-10T04:56:24.594Z,59.14
2019-06-10T04:57:23.824Z,58.74
2019-06-10T04:58:24.434Z,58.54
2019-06-10T04:59:24.301Z,58.94
2019-06-10T05:00:24.095Z,59.44
2019-06-10T05:01:25.564Z,58.74
2019-06-10T05:02:26.433Z,58.94
2019-06-10T05:03:23.832Z,60.00
2019-06-10T05:04:23.991Z,59.31
2019-06-10T05:05:24.042Z,61.29
2019-06-10T05:06:25.200Z,61.69
2019-06-10T05:07:24.090Z,59.91
2019-06-10T05:08:23.926Z,60.40
2019-06-10T05:09:24.471Z,61.79
2019-06-10T05:10:24.083Z,59.97
2019-06-10T05:11:24.280Z,59.58
2019-06-10T05:12:24.947Z,60.17
2019-06-10T05:13:24.170Z,59.38
2019-06-10T05:14:25.283Z,59.97
2019-06-10T05:15:24.915Z,60.17
2019-06-10T05:16:27.562Z,59.28
2019-06-10T05:17:26.277Z,58.19
2019-06-10T05:18:25.104Z,58.39
2019-06-10T05:19:24.692Z,59.58
2019-06-10T05:20:39.969Z,60.37
2019-06-10T05:21:27.554Z,59.48
2019-06-10T05:22:24.260Z,59.28
2019-06-10T05:23:23.865Z,59.67
2019-06-10T05:24:25.164Z,58.29
2019-06-10T05:25:25.342Z,58.39
2019-06-10T05:26:25.009Z,58.88
2019-06-10T05:27:22.846Z,59.18
2019-06-10T05:28:24.469Z,58.98
2019-06-10T05:29:23.517Z,59.28
2019-06-10T05:30:25.050Z,58.88
2019-06-10T05:31:25.203Z,59.05
2019-06-10T05:32:25.927Z,60.64
2019-06-10T05:33:23.143Z,59.75
2019-06-10T05:34:25.298Z,63.02
2019-06-10T05:35:24.181Z,62.72
2019-06-10T05:36:25.454Z,60.44
2019-06-10T05:37:23.806Z,60.94
2019-06-10T05:38:23.946Z,60.34
2019-06-10T05:39:24.260Z,60.94
2019-06-10T05:40:24.748Z,61.33
2019-06-10T05:41:24.815Z,60.94
2019-06-10T05:42:24.889Z,60.54
2019-06-10T05:43:23.753Z,59.94
2019-06-10T05:44:24.217Z,59.92
2019-06-10T05:45:24.461Z,60.02
2019-06-10T05:46:23.979Z,60.02
2019-06-10T05:47:24.974Z,59.62
2019-06-10T05:48:22.735Z,58.43
2019-06-10T05:49:24.216Z,58.73
2019-06-10T05:50:23.702Z,58.63
2019-06-10T05:51:23.205Z,57.84
2019-06-10T05:52:24.291Z,57.84
2019-06-10T05:53:23.081Z,58.33
2019-06-10T05:54:23.380Z,56.85
2019-06-10T05:55:22.855Z,57.31
2019-06-10T05:56:23.786Z,55.43
2019-06-10T05:57:23.930Z,54.35
2019-06-10T05:58:23.486Z,54.24
2019-06-10T05:59:23.050Z,53.75
2019-06-10T06:00:23.332Z,53.25
2019-06-10T06:01:22.939Z,53.55
2019-06-10T06:02:22.371Z,53.92
2019-06-10T06:03:23.014Z,54.12
2019-06-10T06:04:23.303Z,53.63
2019-06-10T06:05:22.238Z,54.32
2019-06-10T06:06:22.927Z,53.42
2019-06-10T06:07:22.333Z,52.73
2019-06-10T06:08:22.773Z,55.21
2019-06-10T06:09:22.157Z,55.70
2019-06-10T06:10:22.327Z,55.51
2019-06-10T06:11:23.159Z,55.30
2019-06-10T06:12:22.565Z,55.41
2019-06-10T06:13:23.221Z,54.61
2019-06-10T06:14:22.608Z,55.28
2019-06-10T06:15:22.143Z,54.79
2019-06-10T06:16:23.052Z,55.77
2019-06-10T06:17:23.619Z,55.18
2019-06-10T06:18:22.582Z,54.59
2019-06-10T06:19:23.163Z,54.19
2019-06-10T06:20:23.523Z,54.06
2019-06-10T06:21:29.147Z,55.55
2019-06-10T06:22:22.986Z,54.56
2019-06-10T06:23:23.159Z,54.14
2019-06-10T06:24:22.078Z,53.35
2019-06-10T06:25:24.026Z,53.55
2019-06-10T06:26:23.719Z,53.52
2019-06-10T06:27:22.547Z,53.22
2019-06-10T06:28:22.948Z,51.35
2019-06-10T06:29:22.269Z,51.64
2019-06-10T06:30:22.694Z,53.59
2019-06-10T06:31:23.260Z,54.19
2019-06-10T06:32:23.624Z,52.04
2019-06-10T06:33:22.111Z,53.42
2019-06-10T06:34:22.494Z,53.92
2019-06-10T06:35:22.711Z,52.83
2019-06-10T06:36:22.690Z,52.41
2019-06-10T06:37:23.165Z,52.01
2019-06-10T06:38:22.454Z,51.72
2019-06-10T06:39:24.162Z,52.31
2019-06-10T06:40:23.089Z,53.89
2019-06-10T06:41:22.605Z,53.79
2019-06-10T06:42:22.919Z,52.91
2019-06-10T06:43:22.232Z,52.70
2019-06-10T06:44:23.349Z,52.01
2019-06-10T06:45:22.241Z,52.11
2019-06-10T06:46:23.366Z,52.63
2019-06-10T06:47:22.677Z,54.38
2019-06-10T06:48:22.710Z,54.68
2019-06-10T06:49:23.124Z,56.65
2019-06-10T06:50:25.411Z,54.88
2019-06-10T06:51:36.413Z,54.58
2019-06-10T06:52:46.941Z,53.79
2019-06-10T06:53:32.714Z,54.75
2019-06-10T06:54:22.993Z,54.16
2019-06-10T06:55:23.360Z,55.64
2019-06-10T06:56:23.091Z,55.54
2019-06-10T06:57:22.350Z,54.13
2019-06-10T06:58:23.153Z,52.16
2019-06-10T06:59:22.362Z,52.75
2019-06-10T07:14:10.237Z,54.70
2019-06-10T07:15:09.224Z,54.21
2019-06-10T07:16:09.238Z,53.32
2019-06-10T07:17:09.214Z,53.02
2019-06-10T07:18:09.214Z,52.31
2019-06-10T07:19:09.194Z,52.61
2019-06-10T07:20:09.224Z,53.00
2019-06-10T07:21:09.185Z,52.21
2019-06-10T07:22:12.802Z,51.54
2019-06-10T07:23:10.154Z,51.35
2019-06-10T07:24:09.135Z,54.30
2019-06-10T07:25:09.125Z,54.80
2019-06-10T07:26:09.178Z,53.91
2019-06-10T07:27:09.075Z,54.57
2019-06-10T07:28:09.095Z,53.78
2019-06-10T07:29:09.074Z,52.01
2019-06-10T07:30:14.621Z,51.72
2019-06-10T07:31:20.845Z,52.40
2019-06-10T07:32:12.282Z,53.19
2019-06-10T07:33:09.028Z,51.50
2019-06-10T07:34:09.017Z,51.50
2019-06-10T07:35:08.997Z,51.40
2019-06-10T07:36:09.014Z,52.16
2019-06-10T07:37:09.047Z,52.36
2019-06-10T07:38:08.988Z,50.98
2019-06-10T07:39:08.968Z,48.32
2019-06-10T07:40:08.977Z,50.29
2019-06-10T07:41:08.977Z,51.67
2019-06-10T07:42:08.958Z,50.81
2019-06-10T07:43:08.996Z,50.61
2019-06-10T07:44:08.891Z,51.99
2019-06-10T07:45:08.925Z,51.50
2019-06-10T07:46:08.909Z,49.11
2019-06-10T07:47:08.884Z,50.49
2019-06-10T07:48:08.890Z,50.29
2019-06-10T07:49:08.961Z,50.07
2019-06-10T07:50:08.838Z,48.79
2019-06-10T07:51:08.839Z,48.10
2019-06-10T07:52:15.601Z,48.49
2019-06-10T07:53:09.805Z,48.30
2019-06-10T07:54:08.840Z,49.87
2019-06-10T07:55:08.886Z,49.48
2019-06-10T07:56:08.763Z,47.00
2019-06-10T07:57:08.782Z,47.09
2019-06-10T07:58:08.791Z,47.56
2019-06-10T07:59:08.790Z,45.28
2019-06-10T08:00:08.745Z,45.67
2019-06-10T08:01:08.831Z,45.26
2019-06-10T08:02:08.725Z,43.98
2019-06-10T08:03:08.707Z,45.06
2019-06-10T08:04:08.712Z,45.63
2019-06-10T08:05:08.720Z,46.91
2019-06-10T08:06:08.700Z,48.21
2019-06-10T08:07:08.773Z,46.63
2019-06-10T08:08:08.638Z,48.23
2019-06-10T08:09:08.632Z,47.81
2019-06-10T08:10:08.621Z,47.52
2019-06-10T08:11:08.667Z,47.42
2019-06-10T08:12:08.593Z,47.59
2019-06-10T08:13:08.792Z,47.47
2019-06-10T08:14:08.575Z,45.80
2019-06-10T08:15:08.592Z,45.21
2019-06-10T08:16:08.589Z,45.49
2019-06-10T08:17:08.546Z,45.27
2019-06-10T08:18:08.584Z,44.46
2019-06-10T08:19:26.339Z,44.37
2019-06-10T08:20:10.082Z,44.66
2019-06-10T08:21:08.540Z,44.64
2019-06-10T08:22:08.536Z,43.76
2019-06-10T08:23:08.532Z,43.84
2019-06-10T08:24:08.496Z,42.46
2019-06-10T08:25:08.594Z,41.86
2019-06-10T08:26:08.503Z,42.81
2019-06-10T08:27:08.477Z,42.22
2019-06-10T08:28:08.454Z,41.91
2019-06-10T08:29:08.465Z,40.64
2019-06-10T08:30:18.667Z,40.53
2019-06-10T08:31:12.153Z,40.21
2019-06-10T08:32:08.437Z,40.01
2019-06-10T08:33:08.388Z,39.23
2019-06-10T08:34:08.410Z,38.75
2019-06-10T08:35:08.355Z,38.16
2019-06-10T08:36:08.368Z,37.95
2019-06-10T08:37:08.757Z,38.34
2019-06-10T08:38:08.339Z,38.22
2019-06-10T08:39:11.891Z,37.45
2019-06-10T08:40:09.312Z,37.43
2019-06-10T08:41:08.353Z,38.61
2019-06-10T08:42:08.314Z,38.92
2019-06-10T08:43:08.387Z,39.53
2019-06-10T08:44:08.268Z,39.72
2019-06-10T08:45:08.293Z,40.11
2019-06-10T08:46:08.285Z,42.26
2019-06-10T08:47:08.294Z,41.95
2019-06-10T08:48:08.269Z,41.73
2019-06-10T08:49:08.358Z,40.45
2019-06-10T08:50:08.231Z,40.13
2019-06-10T08:51:08.237Z,40.33
2019-06-10T08:52:08.229Z,40.72
2019-06-10T08:53:14.760Z,40.50
2019-06-10T08:54:09.248Z,39.80
2019-06-10T08:55:08.209Z,39.31
2019-06-10T08:56:08.192Z,38.91
2019-06-10T08:57:08.180Z,38.70
2019-06-10T08:58:08.163Z,38.01
2019-06-10T08:59:08.167Z,37.52
2019-06-10T09:00:14.266Z,36.94
2019-06-10T09:01:09.142Z,37.24
2019-06-10T09:02:08.134Z,35.97
2019-06-10T09:03:08.081Z,36.93
2019-06-10T09:04:08.129Z,36.34
2019-06-10T09:05:08.062Z,36.73
2019-06-10T09:06:08.152Z,36.81
2019-06-10T09:07:08.083Z,37.22
2019-06-10T09:08:08.094Z,36.15
2019-06-10T09:09:08.064Z,37.24
2019-06-10T09:10:08.052Z,37.43
2019-06-10T09:11:07.999Z,38.79
2019-06-10T09:12:08.073Z,38.52
2019-06-10T09:13:08.032Z,38.42
2019-06-10T09:14:08.012Z,38.31
2019-06-10T09:15:08.002Z,37.80
2019-06-10T09:16:14.948Z,37.51
2019-06-10T09:17:09.062Z,38.27
2019-06-10T09:18:07.966Z,37.96
2019-06-10T09:19:07.945Z,36.77
2019-06-10T09:20:08.194Z,36.76
2019-06-10T09:21:07.942Z,36.29
2019-06-10T09:22:07.925Z,35.03
2019-06-10T09:23:20.868Z,35.24
2019-06-10T09:24:08.900Z,35.57
2019-06-10T09:25:07.883Z,34.80
2019-06-10T09:26:07.876Z,36.24
2019-06-10T09:27:07.893Z,36.94
2019-06-10T09:28:07.885Z,36.85
2019-06-10T09:29:08.479Z,36.42
2019-06-10T09:30:07.853Z,36.40
2019-06-10T09:31:07.843Z,35.64
2019-06-10T09:32:07.817Z,34.88
2019-06-10T09:33:07.825Z,35.58
2019-06-10T09:34:07.824Z,35.50
2019-06-10T09:35:07.876Z,35.60
2019-06-10T09:36:07.755Z,37.10
2019-06-10T09:37:07.811Z,36.88
2019-06-10T09:38:07.789Z,37.19
2019-06-10T09:39:07.778Z,35.42
2019-06-10T09:40:07.756Z,34.43
2019-06-10T09:41:07.789Z,34.50
2019-06-10T09:42:07.801Z,33.49
2019-06-10T09:43:07.751Z,35.03
2019-06-10T09:44:07.728Z,34.53
2019-06-10T09:45:07.695Z,33.36
2019-06-10T09:46:07.684Z,31.79
2019-06-10T09:47:07.778Z,32.76
2019-06-10T09:48:07.682Z,34.11
2019-06-10T09:49:07.680Z,33.72
2019-06-10T09:50:07.660Z,33.72
2019-06-10T09:51:07.611Z,33.92
2019-06-10T09:52:07.624Z,35.21
2019-06-10T09:53:07.688Z,35.53
2019-06-10T09:54:07.609Z,34.85
2019-06-10T09:55:07.599Z,35.43
2019-06-10T09:56:07.559Z,34.85
2019-06-10T09:57:07.601Z,35.45
2019-06-10T09:58:07.577Z,35.45
2019-06-10T09:59:07.674Z,34.08
2019-06-10T10:00:07.555Z,34.93
2019-06-10T10:01:07.579Z,35.32
2019-06-10T10:02:07.550Z,34.23
2019-06-10T10:03:07.541Z,33.15
2019-06-10T10:04:07.539Z,33.33
2019-06-10T10:05:07.631Z,32.92
2019-06-10T10:06:14.497Z,32.15
2019-06-10T10:07:08.452Z,32.42
2019-06-10T10:08:07.456Z,33.39
2019-06-10T10:09:07.473Z,31.65
2019-06-10T10:10:07.480Z,29.99
2019-06-10T10:11:07.551Z,30.57
2019-06-10T10:12:07.453Z,29.97
2019-06-10T10:13:07.475Z,30.55
2019-06-10T10:14:10.211Z,30.75
2019-06-10T10:15:23.281Z,29.78
2019-06-10T10:16:08.461Z,31.23
2019-06-10T10:17:07.394Z,31.91
2019-06-10T10:18:07.430Z,31.81
2019-06-10T10:19:07.404Z,31.73
2019-06-10T10:20:07.360Z,31.16
2019-06-10T10:21:07.382Z,30.89
2019-06-10T10:22:10.768Z,31.76
2019-06-10T10:23:07.360Z,31.84
2019-06-10T10:24:11.478Z,32.23
2019-06-10T10:25:08.292Z,31.36
2019-06-10T10:26:07.325Z,31.28
2019-06-10T10:27:09.509Z,32.34
2019-06-10T10:28:07.695Z,31.97
2019-06-10T10:29:07.302Z,33.14
2019-06-10T10:30:07.262Z,31.68
2019-06-10T10:31:07.293Z,31.87
2019-06-10T10:32:07.235Z,31.78
2019-06-10T10:33:07.248Z,32.26
2019-06-10T10:34:07.296Z,33.33
2019-06-10T10:35:07.246Z,32.94
2019-06-10T10:36:07.176Z,33.54
2019-06-10T10:37:07.211Z,33.15
2019-06-10T10:38:07.186Z,30.65
2019-06-10T10:39:07.176Z,32.97
2019-06-10T10:43:24.487Z,32.20
2019-06-10T10:44:13.617Z,31.04
2019-06-10T10:45:10.074Z,31.73
2019-06-10T10:46:10.046Z,31.26
2019-06-10T10:47:12.367Z,31.53
2019-06-10T10:48:09.980Z,30.57
2019-06-10T10:49:10.084Z,30.09
2019-06-10T10:50:10.001Z,30.08
2019-06-10T10:51:12.627Z,29.40
2019-06-10T10:52:09.988Z,30.09
2019-06-10T10:53:09.952Z,30.29
2019-06-10T10:54:22.458Z,31.16
2019-06-10T10:55:13.016Z,32.52
2019-06-10T10:56:09.963Z,33.78
2019-06-10T10:57:09.944Z,33.49
2019-06-10T10:58:12.701Z,33.11
2019-06-10T10:59:09.920Z,31.27
2019-06-10T11:00:12.285Z,34.09
2019-06-10T11:01:09.981Z,32.35
2019-06-10T11:02:09.882Z,33.44
2019-06-10T11:08:27.847Z,35.55
2019-06-10T11:09:27.783Z,34.89
2019-06-10T11:10:27.742Z,38.24
2019-06-10T11:11:27.761Z,37.09
2019-06-10T11:12:27.706Z,37.01
2019-06-10T11:13:27.731Z,38.20
2019-06-10T11:14:27.800Z,36.54
2019-06-10T11:15:27.725Z,38.22
2019-06-10T11:16:27.650Z,37.63
2019-06-10T11:17:27.671Z,39.10
2019-06-10T11:18:27.701Z,38.22
2019-06-10T11:19:27.644Z,37.85
2019-06-10T11:20:27.992Z,37.65
2019-06-10T11:21:27.675Z,37.45
2019-06-10T11:22:27.665Z,37.55
2019-06-10T11:25:56.936Z,38.02
2019-06-10T11:26:56.375Z,37.52
2019-06-10T11:27:54.564Z,37.01
2019-06-10T11:28:55.637Z,38.24
2019-06-10T11:29:53.963Z,37.93
2019-06-10T11:30:56.710Z,36.74
2019-06-10T11:31:56.683Z,35.36
2019-06-10T11:32:55.898Z,35.63
2019-06-10T11:35:58.049Z,32.21
2019-06-10T11:36:56.397Z,32.60
2019-06-10T11:37:57.007Z,33.18
2019-06-10T11:38:58.739Z,33.86
2019-06-10T11:39:56.526Z,33.96
2019-06-10T11:46:02.973Z,32.97
2019-06-10T11:46:59.484Z,32.29
2019-06-10T11:50:58.590Z,33.33
2019-06-10T11:58:06.963Z,35.72
2019-06-10T11:59:09.614Z,36.91
2019-06-10T12:00:13.912Z,36.63
2019-06-10T12:01:07.702Z,35.85
2019-06-10T12:02:06.741Z,36.23
2019-06-10T12:03:06.731Z,35.55
2019-06-10T12:04:06.800Z,36.54
2019-06-10T12:05:06.663Z,37.34
2019-06-10T12:06:06.703Z,37.45
2019-06-10T12:07:06.692Z,37.67
2019-06-10T12:08:06.709Z,39.06
2019-06-10T12:09:06.622Z,38.78
2019-06-10T12:10:06.722Z,39.96
2019-06-10T12:11:06.641Z,38.59
2019-06-10T12:12:06.610Z,38.67
2019-06-10T12:13:07.407Z,39.14
2019-06-10T12:14:06.585Z,38.24
2019-06-10T12:15:06.613Z,37.95
2019-06-10T12:16:50.764Z,38.34
2019-06-10T12:17:40.901Z,38.22
2019-06-10T12:18:08.828Z,37.73
2019-06-10T12:19:06.575Z,38.02
2019-06-10T12:20:06.517Z,37.54
2019-06-10T12:21:06.545Z,38.40
2019-06-10T12:22:07.770Z,37.63
2019-06-10T12:23:06.542Z,37.83
2019-06-10T12:24:06.503Z,36.75
2019-06-10T12:25:28.399Z,37.24
2019-06-10T12:26:07.490Z,37.62
2019-06-10T12:27:06.495Z,36.05
2019-06-10T12:28:07.589Z,35.85
2019-06-10T12:29:06.479Z,36.44
2019-06-10T12:30:06.471Z,35.75
2019-06-10T12:31:07.435Z,35.55
2019-06-10T12:32:07.569Z,35.45
2019-06-10T12:33:06.437Z,36.41
2019-06-10T12:34:06.454Z,35.53
2019-06-10T12:35:06.408Z,36.70
2019-06-10T12:36:07.427Z,35.16
2019-06-10T12:37:11.059Z,36.26
2019-06-10T12:38:07.368Z,35.81
2019-06-10T12:39:10.599Z,36.49
2019-06-10T12:40:07.419Z,36.77
2019-06-10T12:41:08.915Z,36.94
2019-06-10T12:42:06.791Z,37.63
2019-06-10T12:43:07.349Z,36.93
2019-06-10T12:44:06.331Z,36.05
2019-06-10T12:45:08.544Z,36.62
2019-06-10T12:46:06.368Z,36.51
2019-06-10T12:47:08.187Z,37.21
2019-06-10T12:48:06.968Z,38.38
2019-06-10T12:49:08.450Z,37.91
2019-06-10T12:50:06.237Z,38.12
2019-06-10T12:51:09.304Z,39.31
2019-06-10T12:52:07.650Z,39.53
2019-06-10T12:53:07.248Z,38.75
2019-06-10T12:54:06.584Z,39.45
2019-06-10T12:55:06.205Z,39.54
2019-06-10T12:56:10.660Z,39.33
2019-06-10T12:57:07.332Z,39.43
2019-06-10T12:58:06.178Z,39.51
2019-06-10T12:59:09.788Z,38.53
2019-06-10T13:00:19.678Z,37.35
2019-06-10T13:01:08.012Z,37.87
2019-06-10T13:02:15.362Z,37.95
2019-06-10T13:03:07.711Z,38.42
2019-06-10T13:04:07.971Z,38.02
2019-06-10T13:05:07.090Z,38.61
2019-06-10T13:06:09.068Z,37.62
2019-06-10T13:07:08.533Z,37.71
2019-06-10T13:08:06.061Z,37.62
2019-06-10T13:09:06.385Z,37.32
2019-06-10T13:10:06.064Z,38.30
2019-06-10T13:11:06.042Z,38.59
2019-06-10T13:12:06.022Z,37.62
2019-06-10T13:13:08.826Z,37.89
2019-06-10T13:14:06.712Z,38.09
2019-06-10T13:15:08.428Z,37.77
2019-06-10T13:16:08.566Z,36.90
2019-06-10T13:17:05.935Z,36.80
2019-06-10T13:18:07.775Z,36.52
2019-06-10T13:19:07.790Z,37.52
2019-06-10T13:20:06.425Z,38.40
2019-06-10T13:21:11.902Z,37.91
2019-06-10T13:22:07.577Z,36.73
2019-06-10T13:23:17.291Z,36.73
2019-06-10T13:24:07.916Z,36.83
2019-06-10T13:25:06.900Z,36.34
2019-06-10T13:26:12.147Z,37.02
2019-06-10T13:27:08.242Z,38.40
2019-06-10T13:28:06.821Z,37.52
2019-06-10T13:29:08.728Z,38.10
2019-06-10T13:30:05.814Z,38.20
2019-06-10T13:31:08.026Z,38.90
2019-06-10T13:32:07.525Z,39.78
2019-06-10T13:33:09.312Z,40.09